Terminal Aerodrome Forecast
Issued by NWS

Home | Current Version | Previous Version | Text Only | Print | Product List | Glossary On
Versions: 1 2 3 4 5 6 7 8 9 10 11 12 13
000
FTUS44 KBMX 012300
TAFMGM
TAF
KMGM 012335Z 0200/0224 14007KT P6SM SCT015 SCT080
     FM020100 28009KT 5SM -RA BR OVC015
     FM020430 19012G20KT 2SM SHRA VCTS SCT007CB BKN015 OVC025
     FM020600 24011G18KT 6SM -RA OVC007
     FM021300 28010G20KT P6SM OVC015
     FM021700 33014G21KT P6SM BKN050=

USA.gov is the U.S. government's official web portal to all federal, state and local government web resources and services.